Time;durP1;ratioP1;P1;durP2;ratioP2;P2;SDS_P1;SDS_P2;PMS_P1;PMS_P2;Temp;Humidity;BMP_temperature;BMP_pressure;BME280_temperature;BME280_humidity;BME280_pressure;Samples;Min_cycle;Max_cycle;Signal;HPM_P1;HPM_P2
2022/06/08 00:00:18;;;;;;;4.88;2.65;;;;;;;22.15;44.66;100857.34;4994195;28;20379;-58
2022/06/08 00:02:46;;;;;;;4.50;2.90;;;;;;;22.14;44.76;100855.59;5010390;28;20406;-58
2022/06/08 00:05:11;;;;;;;4.50;2.70;;;;;;;22.15;44.51;100857.34;5010502;28;20391;-59
2022/06/08 00:07:37;;;;;;;5.40;2.50;;;;;;;22.10;44.64;100838.09;5009762;28;20387;-58
2022/06/08 00:10:04;;;;;;;4.53;3.00;;;;;;;22.11;44.51;100850.34;5010457;28;20413;-58
2022/06/08 00:12:29;;;;;;;4.50;2.67;;;;;;;22.14;45.02;100845.09;4993714;28;20482;-56
2022/06/08 00:14:55;;;;;;;5.37;2.90;;;;;;;22.16;44.82;100843.38;4993833;28;20518;-58
2022/06/08 00:17:21;;;;;;;4.15;2.80;;;;;;;22.13;44.51;100840.72;5010046;28;20379;-58
2022/06/08 00:19:47;;;;;;;5.50;2.72;;;;;;;22.15;44.74;100836.38;5010217;28;21078;-58
2022/06/08 00:22:12;;;;;;;7.30;2.70;;;;;;;22.18;45.04;100836.38;4993560;28;20739;-52
2022/06/08 00:24:38;;;;;;;4.90;2.60;;;;;;;22.21;44.22;100839.88;5010020;28;20383;-53
2022/06/08 00:27:04;;;;;;;7.63;3.03;;;;;;;22.18;44.94;100836.38;5009906;28;20375;-52
2022/06/08 00:29:30;;;;;;;6.53;2.60;;;;;;;22.20;44.77;100832.88;5011294;28;20489;-54
2022/06/08 00:31:55;;;;;;;4.85;2.70;;;;;;;22.18;44.76;100831.13;5009880;28;20454;-57
2022/06/08 00:34:21;;;;;;;5.13;2.47;;;;;;;22.17;44.81;100829.38;5011169;28;20867;-55
2022/06/08 00:36:46;;;;;;;5.37;2.50;;;;;;;22.16;44.79;100826.75;5011390;28;20848;-56
2022/06/08 00:39:11;;;;;;;4.47;2.30;;;;;;;22.18;44.93;100825.88;5011116;28;20426;-53
2022/06/08 00:41:43;;;;;;;6.87;2.70;;;;;;;22.15;44.93;100825.88;5010040;28;20391;-55
2022/06/08 00:44:17;;;;;;;5.00;2.60;;;;;;;22.14;44.52;100818.88;5009612;28;20410;-57
2022/06/08 00:46:42;;;;;;;4.15;2.67;;;;;;;22.17;44.80;100818.88;5009928;28;20470;-56
2022/06/08 00:49:21;;;;;;;4.85;2.80;;;;;;;22.18;44.91;100820.66;5011059;28;20541;-55
2022/06/08 00:51:47;;;;;;;5.38;2.60;;;;;;;22.15;44.91;100820.63;5010975;28;20379;-53
2022/06/08 00:54:20;;;;;;;5.13;2.95;;;;;;;22.17;44.86;100829.38;5010738;28;20375;-55
2022/06/08 00:56:50;;;;;;;3.42;2.50;;;;;;;22.17;44.81;100815.38;5013540;28;20441;-53
2022/06/08 00:59:16;;;;;;;4.70;2.40;;;;;;;22.17;45.47;100812.75;5013371;28;20375;-54
2022/06/08 01:01:41;;;;;;;4.63;2.40;;;;;;;22.13;44.99;100801.38;5014641;28;20397;-56
2022/06/08 01:04:16;;;;;;;5.25;2.65;;;;;;;22.14;44.81;100802.25;5013191;28;20398;-56
2022/06/08 01:06:43;;;;;;;4.70;2.65;;;;;;;22.06;44.99;100794.38;4996661;28;20423;-56
2022/06/08 01:09:19;;;;;;;3.63;2.53;;;;;;;22.15;44.75;100815.38;5012912;28;20402;-53
2022/06/08 01:11:45;;;;;;;5.40;2.40;;;;;;;22.16;45.12;100811.88;5012866;28;20402;-58
2022/06/08 01:14:14;;;;;;;4.30;2.50;;;;;;;22.08;45.00;100797.88;5013384;28;20775;-57
2022/06/08 01:16:43;;;;;;;4.20;2.50;;;;;;;22.19;45.03;100816.25;5012794;28;20927;-56
2022/06/08 01:19:10;;;;;;;5.32;2.45;;;;;;;22.13;44.78;100803.13;5013240;28;20386;-57
2022/06/08 01:21:35;;;;;;;3.83;2.25;;;;;;;22.20;45.08;100811.91;5012603;28;20860;-57
2022/06/08 01:24:05;;;;;;;4.10;2.40;;;;;;;22.21;44.99;100813.66;5014319;28;20379;-57
2022/06/08 01:26:37;;;;;;;4.10;2.40;;;;;;;22.19;44.83;100816.25;5012974;28;20375;-58
2022/06/08 01:29:47;;;;;;;4.00;2.13;;;;;;;22.20;45.05;100811.91;5012854;28;20407;-57
2022/06/08 01:32:36;;;;;;;3.60;2.47;;;;;;;22.20;45.11;100817.16;4998533;28;20390;-57
2022/06/08 01:35:07;;;;;;;4.40;2.50;;;;;;;22.20;44.79;100811.91;4996584;28;20844;-57
2022/06/08 01:38:06;;;;;;;3.95;2.20;;;;;;;22.20;44.61;100811.91;5014166;28;20450;-54
2022/06/08 01:40:58;;;;;;;4.55;2.40;;;;;;;22.18;45.11;100804.91;5012776;28;20433;-52
2022/06/08 01:43:32;;;;;;;3.05;2.10;;;;;;;22.21;45.17;100808.41;5010894;28;20395;-51
2022/06/08 01:46:11;;;;;;;5.03;2.25;;;;;;;22.21;45.03;100808.41;5012670;28;20406;-52
2022/06/08 01:48:55;;;;;;;3.43;2.30;;;;;;;22.08;45.05;100782.13;5012358;28;20645;-54
2022/06/08 01:51:51;;;;;;;4.50;2.63;;;;;;;22.22;45.32;100810.16;5012607;28;20732;-54
2022/06/08 01:54:19;;;;;;;3.05;2.10;;;;;;;22.21;45.22;100808.41;5013530;28;20855;-54
2022/06/08 01:56:51;;;;;;;4.13;2.38;;;;;;;22.20;45.33;100796.16;5013742;28;20371;-53
2022/06/08 01:59:37;;;;;;;3.72;2.30;;;;;;;22.21;44.98;100787.44;5013731;28;20383;-54
2022/06/08 02:02:25;;;;;;;4.35;2.50;;;;;;;22.21;44.98;100788.28;5012219;28;20377;-53
2022/06/08 02:04:59;;;;;;;3.67;2.38;;;;;;;22.20;45.24;100783.06;5012296;28;20387;-53
2022/06/08 02:08:00;;;;;;;3.50;2.20;;;;;;;22.21;45.11;100790.03;5012301;28;20721;-54
2022/06/08 02:10:31;;;;;;;5.55;2.40;;;;;;;22.22;45.52;100778.69;4986779;28;20391;-53
2022/06/08 02:13:01;;;;;;;3.33;2.10;;;;;;;22.20;45.05;100776.03;5012197;28;20881;-54
2022/06/08 02:15:37;;;;;;;4.85;2.50;;;;;;;22.22;45.10;100778.69;5011798;28;21069;-54
2022/06/08 02:18:18;;;;;;;3.97;2.10;;;;;;;22.22;45.23;100778.69;5011849;28;20486;-51
2022/06/08 02:20:48;;;;;;;3.80;2.35;;;;;;;22.21;44.93;100777.78;5018628;28;20389;-51
2022/06/08 02:23:34;;;;;;;3.45;2.20;;;;;;;22.21;44.76;100776.94;5031743;28;20413;-55
2022/06/08 02:26:08;;;;;;;3.08;2.00;;;;;;;22.18;44.94;100757.69;5031548;28;20381;-51
2022/06/08 02:28:37;;;;;;;3.47;2.30;;;;;;;22.22;45.11;100765.56;5031741;28;20416;-53
2022/06/08 02:31:17;;;;;;;3.33;2.30;;;;;;;22.22;45.22;100763.81;5031610;28;20381;-53
2022/06/08 02:36:42;;;;;;;3.33;2.25;;;;;;;22.23;45.10;100764.69;5031719;28;20431;-54
2022/06/08 02:39:10;;;;;;;3.53;2.00;;;;;;;22.23;45.00;100769.94;5031340;28;20381;-55
2022/06/08 02:41:36;;;;;;;3.42;2.10;;;;;;;22.17;45.05;100755.94;5031382;28;20386;-55
2022/06/08 02:44:05;;;;;;;3.25;2.10;;;;;;;22.22;45.33;100768.19;5014674;28;20817;-54
2022/06/08 02:46:49;;;;;;;4.13;2.00;;;;;;;22.17;45.22;100757.66;5031416;28;20385;-56
2022/06/08 02:49:14;;;;;;;3.30;2.22;;;;;;;22.17;45.23;100755.94;5031054;28;20385;-51
2022/06/08 02:51:49;;;;;;;3.07;2.20;;;;;;;22.21;45.30;100766.44;5032352;28;20460;-54
2022/06/08 02:54:19;;;;;;;3.17;2.10;;;;;;;22.23;45.08;100759.44;5031106;28;20382;-57
2022/06/08 02:57:21;;;;;;;3.13;2.15;;;;;;;22.23;45.25;100759.44;5030739;28;20719;-58
2022/06/08 02:59:54;;;;;;;3.07;2.03;;;;;;;22.23;45.38;100756.81;5032183;28;20461;-55
2022/06/08 03:02:42;;;;;;;2.75;2.13;;;;;;;22.23;45.19;100756.81;5030919;28;20885;-56
2022/06/08 03:05:13;;;;;;;3.55;2.08;;;;;;;22.23;44.85;100759.44;5031484;28;20927;-54
2022/06/08 03:07:44;;;;;;;2.72;2.00;;;;;;;22.21;45.03;100755.94;5030786;28;20732;-55
2022/06/08 03:10:12;;;;;;;3.83;2.00;;;;;;;22.17;45.18;100758.56;5030659;28;20865;-55
2022/06/08 03:12:39;;;;;;;2.65;1.90;;;;;;;22.22;45.40;100757.69;5030777;28;20365;-54
2022/06/08 03:15:07;;;;;;;3.67;2.08;;;;;;;22.24;44.83;100762.06;5030821;28;20381;-56
2022/06/08 03:17:35;;;;;;;3.13;2.13;;;;;;;22.23;45.28;100762.06;5013447;28;20405;-56
2022/06/08 03:20:02;;;;;;;3.22;2.00;;;;;;;22.21;45.05;100761.19;5030589;28;20424;-52
2022/06/08 03:22:28;;;;;;;2.70;1.92;;;;;;;22.23;45.10;100759.44;4874447;22;20436;-54
2022/06/08 03:24:53;;;;;;;2.80;1.97;;;;;;;22.24;45.25;100761.19;4991390;28;20875;-53
2022/06/08 03:27:18;;;;;;;3.67;2.00;;;;;;;22.24;45.21;100766.44;4990967;28;20380;-52
2022/06/08 03:29:44;;;;;;;4.00;2.10;;;;;;;22.24;45.26;100762.06;4974859;28;20443;-50
2022/06/08 03:32:12;;;;;;;3.33;2.03;;;;;;;22.23;45.13;100765.56;4974918;28;20474;-49
2022/06/08 03:34:37;;;;;;;3.13;2.00;;;;;;;22.24;45.45;100767.31;4992602;28;20485;-52
2022/06/08 03:37:03;;;;;;;3.30;2.00;;;;;;;22.25;45.30;100768.19;4991113;28;20724;-52
2022/06/08 03:39:29;;;;;;;2.77;1.80;;;;;;;22.26;45.21;100769.94;4991336;28;20377;-47
2022/06/08 03:41:54;;;;;;;3.53;2.00;;;;;;;22.25;45.15;100762.94;4990992;28;20447;-53
2022/06/08 03:44:20;;;;;;;2.70;1.73;;;;;;;22.27;45.21;100766.47;4975118;28;20399;-53
2022/06/08 03:47:02;;;;;;;2.40;1.80;;;;;;;22.25;44.95;100760.31;4974952;28;20415;-55
2022/06/08 03:49:28;;;;;;;2.73;1.80;;;;;;;22.25;45.20;100760.31;4974927;28;20489;-50
2022/06/08 03:51:55;;;;;;;2.28;1.75;;;;;;;22.27;45.05;100766.47;4974920;28;20750;-54
2022/06/08 03:54:23;;;;;;;2.75;2.08;;;;;;;22.21;45.03;100753.31;4990950;28;20443;-51
2022/06/08 03:56:53;;;;;;;2.57;1.97;;;;;;;22.25;45.07;100768.19;4990825;28;20408;-48
2022/06/08 03:59:18;;;;;;;3.22;1.83;;;;;;;22.16;45.23;100754.19;4974763;28;20385;-50
2022/06/08 04:01:46;;;;;;;2.65;1.85;;;;;;;22.26;45.02;100764.69;4991985;28;20427;-54
2022/06/08 04:04:12;;;;;;;2.72;1.70;;;;;;;22.23;45.00;100759.44;4974508;28;20384;-48
2022/06/08 04:06:37;;;;;;;2.57;1.83;;;;;;;22.27;45.21;100777.84;4990926;28;20435;-52
2022/06/08 04:09:03;;;;;;;3.15;2.35;;;;;;;22.28;45.24;100768.22;4974577;28;20397;-55
2022/06/08 04:11:29;;;;;;;3.03;1.80;;;;;;;22.28;45.29;100763.84;4991875;28;20881;-58
2022/06/08 04:13:54;;;;;;;3.17;1.97;;;;;;;22.28;45.13;100758.59;4990817;28;20786;-56
2022/06/08 04:16:22;;;;;;;2.63;1.80;;;;;;;22.31;45.28;100755.09;4991522;28;20772;-53
2022/06/08 04:18:48;;;;;;;2.45;1.77;;;;;;;22.29;45.19;100748.97;4990606;28;20719;-50
2022/06/08 04:21:16;;;;;;;2.43;1.70;;;;;;;22.31;45.35;100762.97;4974382;28;20396;-48
2022/06/08 04:23:45;;;;;;;3.03;1.75;;;;;;;22.31;44.85;100760.34;4990667;28;20480;-48
2022/06/08 04:26:12;;;;;;;2.50;1.80;;;;;;;22.29;44.93;100759.47;4990723;28;20469;-54
2022/06/08 04:28:40;;;;;;;5.45;2.28;;;;;;;22.26;45.27;100755.06;4973928;28;20401;-49
2022/06/08 04:31:06;;;;;;;5.40;2.10;;;;;;;22.33;45.21;100766.47;4994647;28;20734;-51
2022/06/08 04:33:35;;;;;;;4.50;2.08;;;;;;;22.33;45.27;100771.72;4978344;28;20399;-49
2022/06/08 04:36:00;;;;;;;5.10;2.33;;;;;;;22.32;45.10;100776.09;4978594;28;20951;-54
2022/06/08 04:38:31;;;;;;;7.55;2.50;;;;;;;22.33;44.84;100771.72;4978180;28;20468;-48
2022/06/08 04:40:59;;;;;;;5.20;2.30;;;;;;;22.33;45.26;100763.84;4994468;28;20889;-51
2022/06/08 04:43:24;;;;;;;4.50;2.42;;;;;;;22.35;45.46;100769.97;4994358;28;20858;-55
2022/06/08 04:45:50;;;;;;;6.78;2.35;;;;;;;22.35;45.73;100769.97;4993859;28;20416;-53
2022/06/08 04:48:15;;;;;;;4.83;2.73;;;;;;;22.34;44.88;100778.72;4977804;28;20401;-56
2022/06/08 04:50:43;;;;;;;5.38;2.30;;;;;;;22.35;45.27;100775.22;4993911;28;20391;-52
2022/06/08 04:53:09;;;;;;;5.28;2.38;;;;;;;22.34;45.13;100778.72;4977961;28;20385;-54
2022/06/08 04:55:34;;;;;;;5.68;2.60;;;;;;;22.30;45.09;100776.97;4995072;28;20935;-51
2022/06/08 04:58:01;;;;;;;5.80;2.50;;;;;;;22.29;44.92;100780.44;4995190;28;20379;-52
2022/06/08 05:00:27;;;;;;;5.50;2.70;;;;;;;22.36;45.07;100787.47;4978148;28;20399;-48
2022/06/08 05:02:53;;;;;;;6.47;2.55;;;;;;;22.36;44.46;100790.09;4994088;28;20929;-51
2022/06/08 05:05:23;;;;;;;5.28;2.55;;;;;;;22.25;44.86;100758.56;4994115;28;20435;-48
2022/06/08 05:07:48;;;;;;;5.25;2.40;;;;;;;22.35;44.67;100769.97;4993974;28;20869;-52
2022/06/08 05:10:14;;;;;;;7.45;2.70;;;;;;;22.36;44.56;100782.22;4993931;28;20391;-49
2022/06/08 05:12:40;;;;;;;5.07;2.63;;;;;;;22.35;44.83;100785.72;4993705;28;20868;-52
2022/06/08 05:15:09;;;;;;;5.43;2.73;;;;;;;22.35;44.63;100780.47;4977514;28;20896;-50
2022/06/08 05:17:35;;;;;;;4.03;2.60;;;;;;;22.34;44.78;100783.97;4993817;28;20445;-49
2022/06/08 05:20:02;;;;;;;4.38;2.45;;;;;;;22.35;45.02;100779.59;4994967;28;20380;-50
2022/06/08 05:22:30;;;;;;;5.57;2.95;;;;;;;22.37;44.90;100789.22;4993784;28;20512;-48
2022/06/08 05:24:58;;;;;;;5.68;2.35;;;;;;;22.36;45.03;100786.59;4993430;28;20847;-49
2022/06/08 05:27:25;;;;;;;4.28;2.47;;;;;;;22.37;44.64;100777.88;4977613;28;20422;-52
2022/06/08 05:29:51;;;;;;;3.63;2.60;;;;;;;22.37;44.96;100789.22;4993562;28;20400;-50
2022/06/08 05:32:16;;;;;;;5.13;2.77;;;;;;;22.35;44.94;100785.72;4993321;28;20389;-50
2022/06/08 05:34:46;;;;;;;4.57;2.40;;;;;;;22.38;44.81;100790.97;4994471;28;20379;-45
2022/06/08 05:37:12;;;;;;;4.30;2.70;;;;;;;22.36;44.71;100779.59;4994382;28;20373;-49
2022/06/08 05:39:37;;;;;;;4.37;2.40;;;;;;;22.38;44.54;100775.22;4994167;28;20472;-48
2022/06/08 05:42:03;;;;;;;4.10;2.50;;;;;;;22.36;44.43;100782.22;4993400;28;20416;-50
2022/06/08 05:44:29;;;;;;;4.07;2.30;;;;;;;22.37;44.38;100780.50;4993295;28;20727;-50
2022/06/08 05:46:54;;;;;;;5.57;2.30;;;;;;;22.37;44.78;100777.88;4993771;28;20423;-51
2022/06/08 05:49:20;;;;;;;6.78;2.88;;;;;;;22.38;44.45;100780.47;4993110;28;20425;-52
2022/06/08 05:51:46;;;;;;;4.77;2.50;;;;;;;22.36;44.62;100776.97;4993328;28;20505;-48
2022/06/08 05:54:12;;;;;;;4.70;2.78;;;;;;;22.39;44.67;100786.63;4993303;28;20507;-51
2022/06/08 05:56:40;;;;;;;3.92;2.38;;;;;;;22.38;44.79;100790.97;4993154;28;20427;-47
2022/06/08 05:59:05;;;;;;;5.82;2.58;;;;;;;22.38;44.62;100780.47;4976999;28;20393;-53
2022/06/08 06:01:34;;;;;;;4.20;2.60;;;;;;;22.39;44.58;100779.59;4993003;28;20516;-52
2022/06/08 06:04:03;;;;;;;4.85;2.45;;;;;;;22.38;44.70;100777.84;4977006;28;20380;-50
2022/06/08 06:06:29;;;;;;;4.75;2.20;;;;;;;22.36;44.37;100769.09;4993664;28;20412;-48
2022/06/08 06:08:55;;;;;;;3.60;2.20;;;;;;;22.39;44.75;100776.97;4990553;28;20408;-55
2022/06/08 06:11:22;;;;;;;4.83;2.43;;;;;;;22.39;44.40;100782.22;4992610;28;20455;-52
2022/06/08 06:13:47;;;;;;;4.43;2.63;;;;;;;22.33;44.57;100766.47;4977120;28;20392;-53
2022/06/08 06:16:13;;;;;;;3.80;2.23;;;;;;;22.39;44.57;100776.97;4994136;28;20449;-50
2022/06/08 06:18:38;;;;;;;4.35;2.30;;;;;;;22.40;44.69;100776.09;4993006;28;20380;-52
2022/06/08 06:21:03;;;;;;;3.70;2.40;;;;;;;22.40;44.54;100776.09;4992619;28;20377;-49
2022/06/08 06:23:29;;;;;;;3.85;2.15;;;;;;;22.40;44.42;100768.22;4992364;28;20392;-48
2022/06/08 06:25:55;;;;;;;3.77;2.30;;;;;;;22.40;44.67;100767.38;4976177;28;20423;-51
2022/06/08 06:28:21;;;;;;;3.22;2.35;;;;;;;22.37;44.44;100768.22;4992480;28;20397;-47
2022/06/08 06:30:46;;;;;;;3.90;2.80;;;;;;;22.38;44.75;100767.34;4976195;28;20472;-52
2022/06/08 06:33:15;;;;;;;5.23;2.63;;;;;;;22.39;44.81;100771.72;4976300;28;20435;-48
2022/06/08 06:35:41;;;;;;;3.85;2.50;;;;;;;22.34;44.58;100757.72;4976457;28;20845;-53
2022/06/08 06:38:08;;;;;;;3.80;2.30;;;;;;;22.40;44.39;100765.59;4976000;28;20423;-54
2022/06/08 06:40:33;;;;;;;3.97;2.40;;;;;;;22.40;44.72;100755.13;4992434;28;20868;-48
2022/06/08 06:42:59;;;;;;;4.20;2.40;;;;;;;22.41;44.42;100764.75;4993608;28;20389;-49
2022/06/08 06:45:26;;;;;;;3.75;2.33;;;;;;;22.41;44.41;100769.97;4993482;28;20416;-51
2022/06/08 06:47:54;;;;;;;4.47;2.50;;;;;;;22.41;44.99;100769.97;4991937;28;20822;-52
2022/06/08 06:50:20;;;;;;;3.88;2.20;;;;;;;22.41;44.45;100769.97;4992046;28;20369;-51
2022/06/08 06:52:46;;;;;;;3.63;2.20;;;;;;;22.41;44.47;100769.97;4975252;28;20384;-53
2022/06/08 06:55:25;;;;;;;4.32;2.42;;;;;;;22.36;44.60;100761.22;4992085;28;20385;-48
2022/06/08 06:57:50;;;;;;;3.92;2.40;;;;;;;22.39;44.33;100766.47;4992133;28;20384;-52
2022/06/08 07:00:16;;;;;;;4.00;2.40;;;;;;;22.40;44.75;100773.47;4992168;28;20397;-55
2022/06/08 07:02:43;;;;;;;5.60;3.10;;;;;;;22.42;44.16;100776.97;4991844;28;20385;-50
2022/06/08 07:05:21;;;;;;;4.30;2.60;;;;;;;22.40;44.36;100778.72;4991835;28;20381;-51
2022/06/08 07:07:49;;;;;;;4.00;2.50;;;;;;;22.38;44.19;100785.72;4991909;28;20892;-50
2022/06/08 07:10:15;;;;;;;4.78;2.40;;;;;;;22.40;44.43;100783.13;4991583;28;20750;-51
2022/06/08 07:12:40;;;;;;;4.55;2.60;;;;;;;22.40;44.44;100788.38;4975470;28;20387;-52
2022/06/08 07:15:06;;;;;;;3.90;2.80;;;;;;;22.41;44.79;100790.13;4991758;28;20420;-56
2022/06/08 07:17:31;;;;;;;4.43;2.67;;;;;;;22.41;44.35;100785.72;4991547;28;20388;-47
2022/06/08 07:20:03;;;;;;;4.07;2.50;;;;;;;22.41;44.55;100790.97;4991495;28;20784;-51
2022/06/08 07:22:29;;;;;;;3.97;2.63;;;;;;;22.42;44.34;100797.13;4991500;28;20389;-53
2022/06/08 07:24:54;;;;;;;3.67;2.60;;;;;;;22.42;44.41;100792.72;4987836;28;20450;-52
2022/06/08 07:27:21;;;;;;;4.33;2.60;;;;;;;22.41;44.24;100790.97;4990772;28;20922;-51
2022/06/08 07:29:48;;;;;;;4.00;2.80;;;;;;;22.41;44.03;100790.13;4988106;28;20416;-52
2022/06/08 07:32:13;;;;;;;3.75;2.63;;;;;;;22.43;44.09;100788.38;4985500;28;20397;-51
2022/06/08 07:34:39;;;;;;;6.20;2.80;;;;;;;22.42;44.17;100787.47;4985848;28;20862;-50
2022/06/08 07:37:04;;;;;;;4.13;2.65;;;;;;;22.42;44.22;100786.63;4970627;28;20875;-52
2022/06/08 07:39:33;;;;;;;5.10;2.50;;;;;;;22.42;44.40;100787.47;4988984;28;20519;-54
2022/06/08 07:41:58;;;;;;;4.75;3.17;;;;;;;22.39;44.36;100776.97;4989088;28;20391;-50
2022/06/08 07:44:24;;;;;;;4.03;2.50;;;;;;;22.41;44.28;100775.22;4989173;28;20389;-51
2022/06/08 07:46:49;;;;;;;4.47;2.77;;;;;;;22.42;44.35;100776.97;4989753;28;20397;-53
2022/06/08 07:49:37;;;;;;;3.97;2.47;;;;;;;22.41;44.13;100775.22;4990408;28;20396;-51
2022/06/08 07:52:05;;;;;;;4.97;2.85;;;;;;;22.37;44.34;100768.22;4963243;28;20400;-53
2022/06/08 07:54:31;;;;;;;4.05;2.55;;;;;;;22.42;44.19;100776.97;4989928;28;20381;-55
2022/06/08 07:56:57;;;;;;;4.22;2.83;;;;;;;22.41;44.36;100769.97;4988546;28;20543;-53
2022/06/08 07:59:27;;;;;;;7.13;3.30;;;;;;;22.36;44.53;100761.22;4990377;28;20372;-50
2022/06/08 08:01:52;;;;;;;9.48;3.75;;;;;;;22.41;44.68;100764.75;4991228;28;20396;-51
2022/06/08 08:04:18;;;;;;;6.43;3.20;;;;;;;22.43;44.67;100768.25;4990293;28;20995;-52
2022/06/08 08:06:46;;;;;;;5.65;3.35;;;;;;;22.45;44.61;100766.53;4990186;28;20466;-53
2022/06/08 08:09:17;;;;;;;11.45;4.13;;;;;;;22.35;44.50;100741.09;4991390;28;20409;-50
2022/06/08 08:11:45;;;;;;;8.13;3.87;;;;;;;22.40;44.78;100744.63;4990307;28;20377;-53
2022/06/08 08:14:13;;;;;;;8.60;4.00;;;;;;;22.43;44.74;100742.00;4972284;28;20727;-47
2022/06/08 08:16:39;;;;;;;7.10;3.50;;;;;;;22.45;44.86;100740.28;4982066;28;20382;-51
2022/06/08 08:19:05;;;;;;;8.70;4.10;;;;;;;22.45;44.78;100723.69;4981892;28;20455;-51
2022/06/08 08:21:32;;;;;;;10.13;3.85;;;;;;;22.45;44.86;100729.78;4973534;28;20876;-52
2022/06/08 08:24:01;;;;;;;6.15;3.83;;;;;;;22.43;44.74;100726.25;4991093;28;20385;-46
2022/06/08 08:26:27;;;;;;;7.85;4.05;;;;;;;22.46;44.91;100730.69;4989481;28;20372;-51
2022/06/08 08:28:53;;;;;;;8.63;4.20;;;;;;;22.46;44.63;100726.28;4985094;28;20401;-47
2022/06/08 08:31:21;;;;;;;9.57;5.30;;;;;;;22.30;44.36;100732.34;4990011;28;20399;-49
2022/06/08 08:33:46;;;;;;;9.35;5.53;;;;;;;22.04;44.17;100725.31;4981010;28;20435;-52
2022/06/08 08:36:12;;;;;;;8.13;5.00;;;;;;;21.85;44.33;100727.88;4987175;28;20392;-48
2022/06/08 08:38:38;;;;;;;7.80;4.78;;;;;;;21.75;44.56;100718.22;4986270;28;20413;-48
2022/06/08 08:42:20;;;;;;;8.10;5.22;;;;;;;21.71;44.03;100714.69;4972170;28;20393;-56
2022/06/08 08:43:51;;;;;;;8.38;5.95;;;;;;;21.66;44.01;100715.53;4988879;28;20759;-49
2022/06/08 08:46:34;;;;;;;8.43;5.95;;;;;;;21.58;44.17;100703.22;4988526;28;20496;-55
2022/06/08 08:49:07;;;;;;;10.30;5.82;;;;;;;21.64;43.89;100696.28;4989746;28;20412;-55
2022/06/08 08:51:42;;;;;;;10.55;6.70;;;;;;;21.50;43.97;100681.34;4987386;28;20395;-53
2022/06/08 08:54:22;;;;;;;9.17;6.00;;;;;;;21.46;44.20;100682.22;4973752;28;20793;-54
2022/06/08 08:56:51;;;;;;;8.43;5.90;;;;;;;21.51;44.19;100675.25;4989849;28;20507;-53
2022/06/08 08:59:19;;;;;;;9.32;5.57;;;;;;;21.53;43.68;100672.66;4974022;28;20388;-52
2022/06/08 09:01:48;;;;;;;7.88;5.50;;;;;;;21.48;43.18;100675.22;4989802;28;20742;-50
2022/06/08 09:04:52;;;;;;;8.87;5.23;;;;;;;21.46;43.18;100666.47;4981104;28;20971;-52
2022/06/08 09:07:19;;;;;;;8.02;5.00;;;;;;;21.52;43.65;100666.50;4989027;28;20385;-54
2022/06/08 09:09:45;;;;;;;8.88;5.00;;;;;;;21.60;43.75;100659.56;4971670;28;20393;-49
2022/06/08 09:12:18;;;;;;;7.72;5.43;;;;;;;21.65;43.66;100659.63;4971538;28;20404;-53
2022/06/08 09:14:58;;;;;;;8.02;5.82;;;;;;;21.65;43.77;100656.09;4991182;28;20377;-52
2022/06/08 09:17:33;;;;;;;11.30;6.13;;;;;;;21.70;43.99;100654.38;4981134;28;20381;-52
2022/06/08 09:20:00;;;;;;;8.27;6.15;;;;;;;21.66;43.83;100650.00;4977254;28;20391;-49
2022/06/08 09:22:35;;;;;;;11.15;6.40;;;;;;;21.64;43.96;100646.50;4417176;22;20611;-59
2022/06/08 09:25:20;;;;;;;9.73;6.50;;;;;;;21.68;43.66;100640.41;5030151;28;20417;-56
2022/06/08 09:27:52;;;;;;;9.23;6.37;;;;;;;21.54;44.32;100608.88;4992892;28;20455;-56
2022/06/08 09:30:20;;;;;;;10.95;7.07;;;;;;;21.73;44.42;100638.66;4983915;28;20399;-57
2022/06/08 09:32:50;;;;;;;10.85;6.88;;;;;;;21.72;43.99;100631.66;4998777;28;20723;-55
2022/06/08 09:35:29;;;;;;;10.63;6.90;;;;;;;21.81;44.37;100628.22;5011012;28;20466;-57
2022/06/08 09:38:15;;;;;;;13.32;7.10;;;;;;;21.81;44.25;100630.84;4999940;28;20398;-56
2022/06/08 09:40:59;;;;;;;10.70;6.40;;;;;;;21.88;44.56;100625.63;5004304;28;20936;-57
2022/06/08 09:43:43;;;;;;;9.33;6.10;;;;;;;21.92;44.30;100623.00;5007849;28;20394;-56
2022/06/08 09:46:11;;;;;;;8.80;6.53;;;;;;;22.00;44.34;100626.50;5006453;28;20427;-57
2022/06/08 09:51:42;;;;;;;9.73;6.68;;;;;;;22.01;42.83;100613.38;5006714;28;20859;-54
2022/06/08 09:54:40;;;;;;;10.32;7.78;;;;;;;21.96;42.43;100619.53;5006776;28;20472;-57
2022/06/08 09:57:24;;;;;;;9.32;6.65;;;;;;;22.00;42.52;100626.50;4992164;28;20967;-56
2022/06/08 10:00:04;;;;;;;9.37;6.50;;;;;;;22.01;43.03;100629.13;5008425;28;20800;-57
2022/06/08 10:02:58;;;;;;;9.27;6.45;;;;;;;22.00;43.22;100626.50;4996921;28;20390;-54
2022/06/08 10:05:43;;;;;;;7.68;5.57;;;;;;;22.08;43.28;100619.53;5009132;28;20390;-56
2022/06/08 10:08:22;;;;;;;6.90;5.00;;;;;;;22.12;43.20;100616.03;5012696;28;20889;-54
2022/06/08 10:11:00;;;;;;;6.88;5.20;;;;;;;22.16;43.17;100616.91;4992532;28;20423;-58
2022/06/08 10:13:37;;;;;;;9.05;5.15;;;;;;;22.21;43.37;100616.91;5005445;28;20420;-57
2022/06/08 10:16:12;;;;;;;6.20;5.05;;;;;;;22.22;43.21;100610.78;5000506;28;20387;-54
2022/06/08 10:18:44;;;;;;;8.88;4.70;;;;;;;22.26;43.39;100623.03;5008568;28;20393;-58
2022/06/08 10:21:20;;;;;;;8.32;4.57;;;;;;;22.27;43.56;100612.56;5011461;28;20391;-54
2022/06/08 10:23:49;;;;;;;6.57;5.03;;;;;;;22.35;43.91;100615.16;5003610;28;20437;-57
2022/06/08 10:26:25;;;;;;;6.47;5.13;;;;;;;22.38;43.77;100606.44;5011920;28;20390;-54
2022/06/08 10:28:58;;;;;;;6.43;4.75;;;;;;;22.44;43.90;100612.53;5013096;28;20402;-55
2022/06/08 10:31:32;;;;;;;9.65;5.40;;;;;;;22.46;44.13;100610.81;4982327;28;20389;-51
2022/06/08 10:34:13;;;;;;;7.50;4.75;;;;;;;22.46;43.97;100608.19;4992776;28;20441;-58
2022/06/08 10:36:41;;;;;;;6.40;4.32;;;;;;;22.44;43.95;100602.03;5007675;28;20414;-58
2022/06/08 10:39:08;;;;;;;6.25;4.05;;;;;;;22.30;43.81;100578.47;5002667;28;20383;-58
2022/06/08 10:44:43;;;;;;;5.43;4.40;;;;;;;22.41;43.86;100595.94;4995626;28;20355;-58
2022/06/08 10:47:16;;;;;;;5.43;4.22;;;;;;;22.30;44.40;100574.94;4992850;28;20384;-58
2022/06/08 10:49:45;;;;;;;4.97;3.78;;;;;;;22.44;44.17;100591.56;5002035;28;20923;-58
2022/06/08 10:52:14;;;;;;;5.82;4.28;;;;;;;22.46;44.22;100600.31;5006375;28;20937;-58
2022/06/08 10:54:57;;;;;;;5.28;4.63;;;;;;;22.46;44.51;100595.06;5012657;28;20437;-57
2022/06/08 10:57:36;;;;;;;6.43;4.40;;;;;;;22.36;44.10;100574.94;5011426;28;20924;-59
2022/06/08 11:00:19;;;;;;;6.63;4.07;;;;;;;22.49;44.27;100593.31;5009671;28;20399;-58
2022/06/08 11:03:03;;;;;;;6.80;4.47;;;;;;;22.47;44.20;100591.59;5007805;28;20387;-58
2022/06/08 11:05:31;;;;;;;5.63;4.05;;;;;;;22.47;44.16;100596.81;5012215;28;20705;-58
2022/06/08 11:08:15;;;;;;;6.15;4.05;;;;;;;22.45;43.95;100593.34;5008343;28;20402;-58
2022/06/08 11:10:43;;;;;;;7.30;3.65;;;;;;;22.46;44.11;100595.06;5010124;28;20386;-58
2022/06/08 11:13:18;;;;;;;5.70;3.90;;;;;;;22.44;44.23;100594.19;5010858;28;20864;-58
2022/06/08 11:15:48;;;;;;;6.78;4.10;;;;;;;22.44;44.24;100590.69;5012156;28;20421;-58
2022/06/08 11:18:21;;;;;;;4.10;3.67;;;;;;;22.46;44.48;100588.97;5011019;28;20688;-58
2022/06/08 11:21:13;;;;;;;4.80;3.92;;;;;;;22.47;44.45;100595.97;4994474;28;20607;-58
2022/06/08 11:23:44;;;;;;;5.18;4.07;;;;;;;22.42;44.19;100582.81;5001060;28;20453;-58
2022/06/08 11:26:25;;;;;;;5.22;4.10;;;;;;;22.45;44.04;100592.47;5012101;28;20375;-57
2022/06/08 11:29:23;;;;;;;6.13;4.50;;;;;;;22.32;44.35;100565.31;5010402;28;20765;-58
2022/06/08 11:31:50;;;;;;;6.00;4.00;;;;;;;22.45;44.13;100595.97;5012139;28;20478;-58
2022/06/08 11:34:18;;;;;;;5.25;3.80;;;;;;;22.45;43.99;100593.34;5010793;28;20371;-58
2022/06/08 11:36:50;;;;;;;7.40;4.40;;;;;;;22.24;44.47;100551.34;5010460;28;20441;-58
2022/06/08 11:39:22;;;;;;;5.85;4.30;;;;;;;22.46;44.53;100588.97;5011907;28;20870;-57
2022/06/08 11:42:09;;;;;;;5.68;4.05;;;;;;;22.47;44.25;100581.09;5010523;28;20379;-58
2022/06/08 11:44:42;;;;;;;5.90;4.10;;;;;;;22.32;44.22;100565.31;5010580;28;20381;-57
2022/06/08 11:47:13;;;;;;;4.75;3.75;;;;;;;22.46;44.32;100581.97;5010457;28;20386;-58
2022/06/08 11:49:42;;;;;;;4.90;4.13;;;;;;;22.47;44.44;100591.59;5011569;28;20387;-58